Time;durP1;ratioP1;P1;durP2;ratioP2;P2;SDS_P1;SDS_P2;PMS_P1;PMS_P2;Temp;Humidity;BMP_temperature;BMP_pressure;BME280_temperature;BME280_humidity;BME280_pressure;Samples;Min_cycle;Max_cycle;Signal;HPM_P1;HPM_P2
2022/03/23 00:02:25;;;;;;;16.02;5.93;;;4.20;99.90;;;;;;5119189;27;20020;-66
2022/03/23 00:04:54;;;;;;;13.35;5.53;;;4.20;99.90;;;;;;5119235;27;20060;-66
2022/03/23 00:07:20;;;;;;;13.13;6.20;;;4.30;99.90;;;;;;5117514;27;20063;-66
2022/03/23 00:09:47;;;;;;;18.23;6.88;;;4.30;99.90;;;;;;5119065;27;20023;-66
2022/03/23 00:12:12;;;;;;;17.52;4.25;;;4.20;99.90;;;;;;5114453;27;20051;-66
2022/03/23 00:14:38;;;;;;;17.35;6.50;;;4.30;99.90;;;;;;5120819;27;20491;-66
2022/03/23 00:17:04;;;;;;;14.18;4.93;;;4.40;99.90;;;;;;5121833;27;20023;-67
2022/03/23 00:19:30;;;;;;;17.90;4.45;;;4.40;99.90;;;;;;5116057;27;20028;-65
2022/03/23 00:21:56;;;;;;;15.90;6.18;;;4.60;99.90;;;;;;5118087;27;20011;-65
2022/03/23 00:24:21;;;;;;;16.67;5.55;;;4.70;99.90;;;;;;5112800;27;20546;-65
2022/03/23 00:26:47;;;;;;;17.35;5.75;;;4.60;99.90;;;;;;5115419;27;20091;-65
2022/03/23 00:29:13;;;;;;;10.98;5.22;;;4.60;99.90;;;;;;5115480;27;20172;-65
2022/03/23 00:31:39;;;;;;;11.80;5.20;;;4.50;99.90;;;;;;5117979;27;20102;-65
2022/03/23 00:34:10;;;;;;;14.18;5.03;;;4.50;99.90;;;;;;5120073;27;20030;-65
2022/03/23 00:36:36;;;;;;;14.15;6.00;;;4.50;99.90;;;;;;5116702;27;20463;-65
2022/03/23 00:39:02;;;;;;;17.67;7.50;;;4.40;99.90;;;;;;5120428;27;20024;-65
2022/03/23 00:41:28;;;;;;;17.27;5.32;;;4.40;99.90;;;;;;5113883;27;20038;-65
2022/03/23 00:43:53;;;;;;;11.77;4.72;;;4.50;99.90;;;;;;5119538;27;20483;-66
2022/03/23 00:46:19;;;;;;;16.02;5.22;;;4.50;99.90;;;;;;5119211;27;20120;-65
2022/03/23 00:48:45;;;;;;;15.80;5.80;;;4.50;99.90;;;;;;5116615;27;20418;-65
2022/03/23 00:51:11;;;;;;;15.32;5.70;;;4.60;99.90;;;;;;5119720;27;20015;-65
2022/03/23 00:53:36;;;;;;;11.35;5.05;;;4.40;99.90;;;;;;5118246;27;20075;-65
2022/03/23 00:56:03;;;;;;;13.82;4.65;;;4.40;99.90;;;;;;5119467;27;20034;-65
2022/03/23 00:58:29;;;;;;;13.15;4.65;;;4.30;99.90;;;;;;5115747;27;20036;-65
2022/03/23 01:01:00;;;;;;;13.05;5.22;;;4.20;99.90;;;;;;5113096;27;20030;-65
2022/03/23 01:03:26;;;;;;;19.77;6.78;;;4.30;99.90;;;;;;5110582;27;20372;-65
2022/03/23 01:05:51;;;;;;;16.70;6.05;;;4.10;99.90;;;;;;5112912;27;20047;-65
2022/03/23 01:08:17;;;;;;;14.57;5.03;;;3.90;99.90;;;;;;5119646;27;20030;-65
2022/03/23 01:10:43;;;;;;;11.88;5.13;;;3.90;99.90;;;;;;5113925;27;20141;-65
2022/03/23 01:13:08;;;;;;;12.82;5.10;;;3.80;99.90;;;;;;5115907;27;20097;-65
2022/03/23 01:15:34;;;;;;;13.80;4.93;;;3.80;99.90;;;;;;5118531;27;20015;-65
2022/03/23 01:18:00;;;;;;;17.25;4.90;;;4.00;99.90;;;;;;5119109;27;20026;-65
2022/03/23 01:20:25;;;;;;;12.77;5.07;;;4.10;99.90;;;;;;5118967;27;20405;-65
2022/03/23 01:22:51;;;;;;;15.60;5.35;;;4.10;99.90;;;;;;5115273;27;20391;-65
2022/03/23 01:25:18;;;;;;;13.40;4.90;;;4.10;99.90;;;;;;5119430;27;20024;-66
2022/03/23 01:27:45;;;;;;;18.77;6.03;;;4.00;99.90;;;;;;5119141;27;20031;-65
2022/03/23 01:30:12;;;;;;;16.27;5.10;;;3.90;99.90;;;;;;5116947;27;20071;-65
2022/03/23 01:32:39;;;;;;;16.30;5.43;;;4.00;99.90;;;;;;5118572;27;20467;-65
2022/03/23 01:35:05;;;;;;;38.78;5.95;;;3.90;99.90;;;;;;5118406;28;20073;-66
2022/03/23 01:37:31;;;;;;;16.63;5.50;;;3.90;99.90;;;;;;5115028;28;20571;-66
2022/03/23 01:39:57;;;;;;;13.70;4.57;;;3.90;99.90;;;;;;5119530;27;20050;-65
2022/03/23 01:42:23;;;;;;;14.35;4.55;;;3.80;99.90;;;;;;5118895;27;20027;-66
2022/03/23 01:44:49;;;;;;;12.45;4.50;;;3.70;99.90;;;;;;5117156;27;20444;-65
2022/03/23 01:47:16;;;;;;;9.48;4.13;;;3.70;99.90;;;;;;5120427;27;20035;-65
2022/03/23 01:49:52;;;;;;;12.23;4.57;;;3.70;99.90;;;;;;5118199;27;20019;-66
2022/03/23 01:52:19;;;;;;;11.18;4.88;;;3.60;99.90;;;;;;5118940;27;20027;-65
2022/03/23 01:54:45;;;;;;;12.90;4.38;;;3.60;99.90;;;;;;5116834;27;20093;-66
2022/03/23 01:57:14;;;;;;;11.15;3.58;;;3.70;99.90;;;;;;5118800;27;20023;-65
2022/03/23 01:59:40;;;;;;;15.27;4.72;;;3.60;99.90;;;;;;5120519;27;20163;-66
2022/03/23 02:02:06;;;;;;;12.13;4.30;;;3.60;99.90;;;;;;5119287;27;20484;-66
2022/03/23 02:04:32;;;;;;;10.93;4.72;;;3.60;99.90;;;;;;5118408;27;20034;-65
2022/03/23 02:06:57;;;;;;;10.98;4.75;;;3.50;99.90;;;;;;5120708;27;20027;-65
2022/03/23 02:09:25;;;;;;;14.95;4.78;;;3.50;99.90;;;;;;5117053;27;20548;-66
2022/03/23 02:11:52;;;;;;;14.88;5.97;;;3.50;99.90;;;;;;5118914;27;20483;-66
2022/03/23 02:14:18;;;;;;;9.65;3.38;;;3.50;99.90;;;;;;5111773;27;20019;-65
2022/03/23 02:16:49;;;;;;;11.52;3.95;;;3.40;99.90;;;;;;5121440;27;20492;-65
2022/03/23 02:19:16;;;;;;;13.85;5.47;;;3.30;99.90;;;;;;5116018;27;20026;-66
2022/03/23 02:21:49;;;;;;;11.95;4.60;;;3.20;99.90;;;;;;5116500;27;20023;-66
2022/03/23 02:24:16;;;;;;;13.57;5.78;;;3.00;99.90;;;;;;5118051;27;20380;-66
2022/03/23 02:26:42;;;;;;;10.07;3.88;;;3.10;99.90;;;;;;5111476;27;20114;-65
2022/03/23 02:29:09;;;;;;;16.88;5.47;;;3.30;99.90;;;;;;5116296;27;20419;-65
2022/03/23 02:31:35;;;;;;;12.95;5.07;;;3.40;99.90;;;;;;5115360;27;20640;-65
2022/03/23 02:34:02;;;;;;;12.38;4.25;;;3.30;99.90;;;;;;5117453;27;20039;-65
2022/03/23 02:36:29;;;;;;;15.15;4.88;;;3.40;99.90;;;;;;5112879;27;20027;-65
2022/03/23 02:38:54;;;;;;;13.27;5.65;;;3.50;99.90;;;;;;5113949;27;20020;-66
2022/03/23 02:41:20;;;;;;;16.25;5.05;;;3.50;99.90;;;;;;5117401;27;20046;-65
2022/03/23 02:43:46;;;;;;;14.40;4.75;;;3.40;99.90;;;;;;5107641;27;20030;-65
2022/03/23 02:46:17;;;;;;;12.63;4.15;;;3.30;99.90;;;;;;5114827;27;20026;-65
2022/03/23 02:48:43;;;;;;;12.07;5.63;;;3.40;99.90;;;;;;5110986;27;20051;-65
2022/03/23 02:51:10;;;;;;;12.95;4.93;;;3.40;99.90;;;;;;5110552;27;20080;-65
2022/03/23 03:02:35;;;;;;;;;;;3.20;99.90;;;;;;5099201;27;20042;-65
2022/03/23 03:05:01;;;;;;;12.88;3.38;;;3.10;99.90;;;;;;5116671;27;20378;-65
2022/03/23 03:07:26;;;;;;;11.00;3.47;;;2.90;99.90;;;;;;5114263;27;20035;-65
2022/03/23 03:09:52;;;;;;;17.92;5.32;;;2.80;99.90;;;;;;5115154;27;20160;-65
2022/03/23 03:12:18;;;;;;;11.52;4.25;;;2.80;99.90;;;;;;5107769;27;20023;-65
2022/03/23 03:14:44;;;;;;;7.97;4.00;;;2.70;99.90;;;;;;5114034;27;20027;-65
2022/03/23 03:17:10;;;;;;;11.20;5.32;;;2.70;99.90;;;;;;5116042;27;20015;-65
2022/03/23 03:19:36;;;;;;;6.80;3.72;;;2.50;99.90;;;;;;5114057;27;20028;-66
2022/03/23 03:22:02;;;;;;;14.43;4.35;;;2.50;99.90;;;;;;5121240;27;20087;-66
2022/03/23 03:24:28;;;;;;;13.63;4.28;;;2.50;99.90;;;;;;5115465;27;20534;-65
2022/03/23 03:26:54;;;;;;;9.43;4.75;;;2.50;99.90;;;;;;5118731;27;20160;-65
2022/03/23 03:29:20;;;;;;;9.65;3.90;;;2.60;99.90;;;;;;5114382;27;20112;-65
2022/03/23 03:35:09;;;;;;;10.77;4.20;;;2.50;99.90;;;;;;5118755;27;20046;-65
2022/03/23 03:37:35;;;;;;;8.45;3.17;;;2.40;99.90;;;;;;5113094;27;20031;-65
2022/03/23 03:40:03;;;;;;;12.27;3.70;;;2.30;99.90;;;;;;5119327;27;20031;-65
2022/03/23 03:42:29;;;;;;;14.75;5.18;;;2.40;99.90;;;;;;5109102;27;20031;-65
2022/03/23 03:44:55;;;;;;;16.08;3.70;;;2.30;99.90;;;;;;5119521;27;20026;-65
2022/03/23 03:47:20;;;;;;;13.70;4.28;;;2.10;99.90;;;;;;5120400;27;20043;-65
2022/03/23 03:49:49;;;;;;;7.80;3.65;;;2.10;99.90;;;;;;5118826;27;20027;-65
2022/03/23 03:52:14;;;;;;;13.27;4.97;;;2.20;99.90;;;;;;5119895;27;20023;-65
2022/03/23 03:54:40;;;;;;;9.85;3.95;;;2.30;99.90;;;;;;5118487;27;20089;-65
2022/03/23 03:57:07;;;;;;;12.70;4.18;;;2.20;99.90;;;;;;5118069;27;20040;-65
2022/03/23 03:59:34;;;;;;;13.02;4.95;;;2.20;99.90;;;;;;5116276;27;20019;-65
2022/03/23 04:02:00;;;;;;;8.05;3.67;;;2.00;99.90;;;;;;5117784;27;20036;-65
2022/03/23 04:04:25;;;;;;;13.88;4.70;;;2.10;99.90;;;;;;5114317;27;20059;-65
2022/03/23 04:06:51;;;;;;;8.27;3.80;;;2.20;99.90;;;;;;5115274;27;20122;-65
2022/03/23 04:09:16;;;;;;;12.90;5.05;;;2.10;99.90;;;;;;5112541;27;20145;-65
2022/03/23 04:11:42;;;;;;;11.68;4.65;;;2.20;99.90;;;;;;5116808;27;20046;-65
2022/03/23 04:14:07;;;;;;;11.00;4.22;;;2.40;99.90;;;;;;5118144;27;20031;-65
2022/03/23 04:16:33;;;;;;;9.80;4.63;;;2.60;99.90;;;;;;5110560;27;20038;-64
2022/03/23 04:18:59;;;;;;;10.55;3.63;;;2.70;99.90;;;;;;5118222;27;20019;-64
2022/03/23 04:21:24;;;;;;;9.05;4.03;;;3.00;99.90;;;;;;5106453;28;20026;-64
2022/03/23 04:23:50;;;;;;;7.82;3.47;;;3.20;99.90;;;;;;5110088;27;20073;-65
2022/03/23 04:26:16;;;;;;;11.77;3.95;;;3.30;99.90;;;;;;5112670;27;20019;-65
2022/03/23 04:28:41;;;;;;;12.05;4.50;;;3.50;99.90;;;;;;5114698;27;20055;-65
2022/03/23 04:31:07;;;;;;;9.05;4.20;;;3.60;99.90;;;;;;5109788;27;20043;-65
2022/03/23 04:33:33;;;;;;;8.30;4.20;;;3.60;99.90;;;;;;5114498;27;20128;-65
2022/03/23 04:35:59;;;;;;;11.15;4.50;;;3.40;99.90;;;;;;5114197;27;20028;-65
2022/03/23 04:38:26;;;;;;;9.73;4.53;;;3.20;99.90;;;;;;5114246;27;20671;-65
2022/03/23 04:40:52;;;;;;;11.50;4.60;;;3.00;99.90;;;;;;5114413;27;20102;-65
2022/03/23 04:43:17;;;;;;;15.15;6.43;;;2.80;99.90;;;;;;5115967;27;20099;-65
2022/03/23 04:45:43;;;;;;;14.10;6.05;;;2.70;99.90;;;;;;5114726;27;20031;-65
2022/03/23 04:48:08;;;;;;;14.13;5.78;;;2.50;99.90;;;;;;5114922;27;20425;-65
2022/03/23 04:50:34;;;;;;;14.02;5.47;;;2.30;99.90;;;;;;5114948;27;20066;-65
2022/03/23 04:53:00;;;;;;;11.93;3.88;;;2.20;99.90;;;;;;5116868;27;20059;-65
2022/03/23 04:55:25;;;;;;;8.63;4.50;;;2.10;99.90;;;;;;5111250;27;20023;-65
2022/03/23 04:57:51;;;;;;;11.75;5.00;;;2.00;99.90;;;;;;5114535;27;20050;-65
2022/03/23 05:00:20;;;;;;;6.93;3.05;;;2.00;99.90;;;;;;5113031;27;20034;-65
2022/03/23 05:02:47;;;;;;;10.10;4.45;;;2.10;99.90;;;;;;5111199;27;20008;-65
2022/03/23 05:05:13;;;;;;;12.77;5.28;;;2.10;99.90;;;;;;5111024;27;20059;-65
2022/03/23 05:07:43;;;;;;;9.35;3.42;;;2.10;99.90;;;;;;5115899;27;20606;-65
2022/03/23 05:10:10;;;;;;;7.72;3.53;;;2.10;99.90;;;;;;5114815;27;20031;-65
2022/03/23 05:12:37;;;;;;;11.23;4.38;;;2.00;99.90;;;;;;5111087;27;20035;-65
2022/03/23 05:15:05;;;;;;;11.18;3.47;;;2.00;99.90;;;;;;5116938;27;20038;-65
2022/03/23 05:17:31;;;;;;;6.82;3.95;;;1.80;99.90;;;;;;5115360;27;20079;-65
2022/03/23 05:19:57;;;;;;;9.07;4.15;;;1.80;99.90;;;;;;5115029;27;20554;-65
2022/03/23 05:22:23;;;;;;;8.73;4.28;;;1.90;99.90;;;;;;5115424;27;20383;-65
2022/03/23 05:24:48;;;;;;;12.30;4.10;;;2.00;99.90;;;;;;5116677;27;20091;-65
2022/03/23 05:27:14;;;;;;;6.20;2.30;;;1.90;99.90;;;;;;5111041;27;20595;-65
2022/03/23 05:29:40;;;;;;;12.35;5.45;;;1.90;99.90;;;;;;5110822;28;20411;-65
2022/03/23 05:32:06;;;;;;;9.55;4.35;;;1.80;99.90;;;;;;5112532;28;20118;-65
2022/03/23 05:34:32;;;;;;;10.07;5.45;;;1.80;99.90;;;;;;5113426;28;20080;-65
2022/03/23 05:36:58;;;;;;;11.25;3.33;;;1.80;99.90;;;;;;5113143;27;20034;-65
2022/03/23 05:39:23;;;;;;;14.15;4.68;;;1.80;99.90;;;;;;5113327;28;20028;-65
2022/03/23 05:41:49;;;;;;;15.38;4.97;;;1.70;99.90;;;;;;5111189;28;20525;-65
2022/03/23 05:44:14;;;;;;;13.10;4.53;;;1.70;99.90;;;;;;5110187;28;20028;-66
2022/03/23 05:46:40;;;;;;;16.25;5.93;;;1.60;99.90;;;;;;5112294;28;20039;-65
2022/03/23 05:49:06;;;;;;;19.63;5.72;;;1.70;99.90;;;;;;5118273;27;20027;-65
2022/03/23 05:51:31;;;;;;;15.98;4.30;;;1.70;99.90;;;;;;5112778;28;20031;-65
2022/03/23 05:53:57;;;;;;;10.75;4.25;;;1.80;99.90;;;;;;5115486;28;20027;-65
2022/03/23 05:56:22;;;;;;;11.27;4.82;;;1.80;99.90;;;;;;5117298;28;20027;-65
2022/03/23 05:58:48;;;;;;;10.23;4.88;;;1.90;99.90;;;;;;5117215;28;20431;-65
2022/03/23 06:01:14;;;;;;;12.63;4.53;;;2.10;99.90;;;;;;5117467;27;20122;-65
2022/03/23 06:03:40;;;;;;;10.90;4.03;;;2.00;99.90;;;;;;5117820;27;20034;-65
2022/03/23 06:06:06;;;;;;;10.77;3.63;;;2.00;99.90;;;;;;5113117;28;20019;-65
2022/03/23 06:08:32;;;;;;;7.45;3.60;;;2.00;99.90;;;;;;5114901;27;20910;-66
2022/03/23 06:10:58;;;;;;;12.60;5.32;;;2.10;99.90;;;;;;5115184;28;20043;-65
2022/03/23 06:13:25;;;;;;;9.93;5.13;;;2.30;99.90;;;;;;5110742;28;20024;-65
2022/03/23 06:15:50;;;;;;;13.55;5.20;;;2.30;99.90;;;;;;5114862;28;20085;-65
2022/03/23 06:18:16;;;;;;;12.40;6.13;;;2.30;99.90;;;;;;5112259;28;20430;-65
2022/03/23 06:20:41;;;;;;;11.48;4.18;;;2.30;99.90;;;;;;5109294;28;20115;-65
2022/03/23 06:23:07;;;;;;;15.27;4.15;;;2.40;99.90;;;;;;5109661;28;20020;-65
2022/03/23 06:25:33;;;;;;;17.85;5.70;;;2.60;99.90;;;;;;5109659;28;20074;-65
2022/03/23 06:27:58;;;;;;;8.05;4.07;;;2.70;99.90;;;;;;5115236;27;20031;-65
2022/03/23 06:30:24;;;;;;;11.98;4.85;;;2.70;99.90;;;;;;5111506;27;20039;-66
2022/03/23 06:32:50;;;;;;;10.65;4.60;;;2.90;99.90;;;;;;5118568;27;20479;-65
2022/03/23 06:35:16;;;;;;;14.40;4.70;;;3.20;99.90;;;;;;5114334;27;20031;-65
2022/03/23 06:37:42;;;;;;;14.18;5.97;;;3.40;99.90;;;;;;5112456;27;20074;-66
2022/03/23 06:40:09;;;;;;;15.57;5.80;;;3.50;99.90;;;;;;5121737;27;20047;-66
2022/03/23 06:42:35;;;;;;;12.60;4.28;;;3.60;99.90;;;;;;5120892;27;20020;-65
2022/03/23 06:45:04;;;;;;;18.73;5.32;;;3.80;99.90;;;;;;5123095;27;20023;-66
2022/03/23 06:47:30;;;;;;;13.13;5.70;;;4.10;99.90;;;;;;5110117;27;20506;-65
2022/03/23 06:49:55;;;;;;;10.25;4.30;;;4.50;99.90;;;;;;5116902;27;20030;-65
2022/03/23 06:52:21;;;;;;;19.45;5.75;;;4.80;99.90;;;;;;5117738;27;20027;-65
2022/03/23 06:54:48;;;;;;;11.18;4.20;;;5.00;99.90;;;;;;5118826;27;20050;-65
2022/03/23 06:57:14;;;;;;;10.80;4.70;;;5.10;99.90;;;;;;5112946;27;20043;-65
2022/03/23 06:59:39;;;;;;;10.25;4.60;;;5.30;99.90;;;;;;5112363;27;20058;-65
2022/03/23 07:02:05;;;;;;;19.15;5.93;;;5.40;99.90;;;;;;5113127;27;20078;-65
2022/03/23 07:04:31;;;;;;;13.00;5.13;;;5.40;99.90;;;;;;5114748;27;20735;-65
2022/03/23 07:06:57;;;;;;;9.63;4.18;;;5.40;99.90;;;;;;5108713;27;20031;-65
2022/03/23 07:09:31;;;;;;;12.85;4.57;;;5.40;99.90;;;;;;5117661;27;20133;-65
2022/03/23 07:12:02;;;;;;;14.43;5.13;;;5.60;99.90;;;;;;5114917;27;20034;-65
2022/03/23 07:14:28;;;;;;;;;;;5.70;99.90;;;;;;5124140;27;20031;-65
2022/03/23 07:16:53;;;;;;;9.60;3.60;;;5.90;99.90;;;;;;5117362;27;20232;-65
2022/03/23 07:19:20;;;;;;;13.85;5.68;;;6.00;99.90;;;;;;5114972;27;20026;-65
2022/03/23 07:21:46;;;;;;;18.10;5.35;;;6.10;99.90;;;;;;5113255;27;20123;-65
2022/03/23 07:24:11;;;;;;;10.82;4.95;;;6.30;99.90;;;;;;5111750;27;20107;-65
2022/03/23 07:26:37;;;;;;;19.10;7.47;;;6.60;99.90;;;;;;5110816;27;20050;-65
2022/03/23 07:29:03;;;;;;;20.08;7.00;;;7.00;99.90;;;;;;5110130;27;20052;-65
2022/03/23 07:31:28;;;;;;;25.98;6.53;;;7.10;99.90;;;;;;5111612;27;20031;-66
2022/03/23 07:33:54;;;;;;;13.73;5.60;;;7.30;99.90;;;;;;5114026;27;20510;-66
2022/03/23 07:36:20;;;;;;;18.42;6.15;;;7.40;99.90;;;;;;5114125;27;20024;-65
2022/03/23 07:38:45;;;;;;;15.05;5.15;;;7.60;99.90;;;;;;5117304;27;20032;-66
2022/03/23 07:41:11;;;;;;;16.05;5.93;;;7.80;99.90;;;;;;5115582;27;20398;-66
2022/03/23 07:43:37;;;;;;;14.52;5.05;;;8.10;99.90;;;;;;5118242;27;20035;-66
2022/03/23 07:46:02;;;;;;;14.25;5.20;;;8.30;99.90;;;;;;5116665;27;20131;-66
2022/03/23 07:48:28;;;;;;;13.20;5.30;;;8.40;99.90;;;;;;5132839;27;20027;-65
2022/03/23 07:50:53;;;;;;;15.45;5.03;;;8.60;99.90;;;;;;5132035;27;20033;-65
2022/03/23 07:53:19;;;;;;;17.23;5.85;;;8.70;99.90;;;;;;5128366;27;20046;-65
2022/03/23 07:55:45;;;;;;;13.18;5.15;;;8.90;99.90;;;;;;5129019;27;20461;-65
2022/03/23 07:58:12;;;;;;;12.85;5.68;;;9.10;99.90;;;;;;5134346;27;20122;-65
2022/03/23 08:00:38;;;;;;;13.18;4.93;;;9.30;99.90;;;;;;5128357;27;20023;-65
2022/03/23 08:03:05;;;;;;;14.75;5.90;;;9.50;99.90;;;;;;5129872;27;20015;-65
2022/03/23 08:05:31;;;;;;;12.85;4.15;;;9.60;99.90;;;;;;5129209;27;20054;-65
2022/03/23 08:07:57;;;;;;;10.90;4.43;;;9.70;99.90;;;;;;5130882;27;20023;-66
2022/03/23 08:10:23;;;;;;;15.07;4.78;;;10.00;99.90;;;;;;5127487;27;20546;-65
2022/03/23 08:12:50;;;;;;;15.25;4.72;;;10.20;99.90;;;;;;5130023;27;20019;-65
2022/03/23 08:15:16;;;;;;;11.13;4.30;;;10.30;98.80;;;;;;5127454;27;20130;-65
2022/03/23 08:17:42;;;;;;;13.18;4.93;;;10.60;97.80;;;;;;5127004;27;20585;-65
2022/03/23 08:23:03;;;;;;;15.57;5.18;;;10.80;97.70;;;;;;5130705;27;20148;-65
2022/03/23 08:25:29;;;;;;;18.92;5.10;;;11.00;97.00;;;;;;5133613;27;20019;-65
2022/03/23 08:27:57;;;;;;;17.48;5.72;;;11.20;96.60;;;;;;5126565;27;20155;-65
2022/03/23 08:30:24;;;;;;;14.98;5.10;;;11.30;96.70;;;;;;5123044;27;20039;-65
2022/03/23 08:32:49;;;;;;;13.32;5.68;;;11.60;95.70;;;;;;5119265;27;20433;-65
2022/03/23 08:35:16;;;;;;;12.10;4.32;;;12.10;94.90;;;;;;5114551;27;20126;-65
2022/03/23 08:37:42;;;;;;;16.27;5.60;;;12.80;93.60;;;;;;5114391;27;20118;-65
2022/03/23 08:40:08;;;;;;;20.05;5.30;;;13.20;91.90;;;;;;5118992;27;20095;-65
2022/03/23 08:42:34;;;;;;;13.77;4.55;;;13.90;91.40;;;;;;5120773;27;20118;-65
2022/03/23 08:45:00;;;;;;;22.27;6.15;;;14.60;90.30;;;;;;5125281;27;20412;-66
2022/03/23 08:47:27;;;;;;;15.30;4.90;;;14.90;89.50;;;;;;5127117;27;20027;-66
2022/03/23 08:49:53;;;;;;;18.83;6.13;;;15.60;88.40;;;;;;5115227;27;20128;-66
2022/03/23 08:52:19;;;;;;;14.13;4.82;;;16.20;85.70;;;;;;5120296;27;20443;-66
2022/03/23 08:54:44;;;;;;;14.00;5.03;;;16.90;82.90;;;;;;5123112;27;20042;-66
2022/03/23 08:57:10;;;;;;;14.77;5.50;;;17.00;81.40;;;;;;5119248;27;20027;-66
2022/03/23 08:59:36;;;;;;;14.88;4.90;;;17.10;80.90;;;;;;5115822;27;20479;-66
2022/03/23 09:02:01;;;;;;;13.65;4.82;;;17.50;80.10;;;;;;5119456;27;20023;-66
2022/03/23 09:04:27;;;;;;;15.13;5.25;;;17.80;78.20;;;;;;5114292;27;20032;-66
2022/03/23 09:06:53;;;;;;;14.48;4.97;;;18.30;77.30;;;;;;5118707;27;20085;-66
2022/03/23 09:09:18;;;;;;;17.45;5.53;;;19.10;74.90;;;;;;5120051;27;20038;-66
2022/03/23 09:11:44;;;;;;;16.73;6.05;;;19.60;73.60;;;;;;5114855;27;20023;-66
2022/03/23 09:14:11;;;;;;;31.60;16.15;;;19.80;74.00;;;;;;5119689;27;20890;-66
2022/03/23 09:16:37;;;;;;;15.23;5.57;;;20.70;71.10;;;;;;5112250;27;20014;-67
2022/03/23 09:19:03;;;;;;;16.08;5.38;;;22.50;69.00;;;;;;5107430;27;20047;-66
2022/03/23 09:21:28;;;;;;;15.55;5.85;;;22.70;65.30;;;;;;5128050;27;20059;-66
2022/03/23 09:23:54;;;;;;;17.17;5.47;;;23.60;62.90;;;;;;5107773;27;20042;-66
2022/03/23 09:26:20;;;;;;;16.35;5.78;;;23.20;63.40;;;;;;5108290;27;21091;-66
2022/03/23 09:28:46;;;;;;;15.88;5.68;;;20.70;65.40;;;;;;5111549;27;20045;-67
2022/03/23 09:31:12;;;;;;;16.05;5.38;;;21.60;64.50;;;;;;5106510;27;20030;-66
2022/03/23 09:33:38;;;;;;;16.45;5.55;;;22.20;62.50;;;;;;5125782;27;20106;-66
2022/03/23 09:36:04;;;;;;;13.52;4.95;;;21.30;58.90;;;;;;5116250;27;20440;-66
2022/03/23 09:38:30;;;;;;;18.17;5.70;;;21.90;58.20;;;;;;5122638;27;20385;-66
2022/03/23 09:40:56;;;;;;;14.02;5.55;;;21.50;56.90;;;;;;5108074;27;20020;-66
2022/03/23 09:43:23;;;;;;;15.50;5.70;;;21.80;57.30;;;;;;5105306;27;20522;-66
2022/03/23 09:45:51;;;;;;;14.25;4.93;;;20.70;58.00;;;;;;5107833;27;20039;-66
2022/03/23 09:48:20;;;;;;;22.45;5.93;;;21.80;58.90;;;;;;5107869;27;20018;-66
2022/03/23 09:50:53;;;;;;;41.13;23.58;;;21.60;59.00;;;;;;5111770;27;20106;-66
2022/03/23 09:53:21;;;;;;;16.60;5.65;;;20.50;56.40;;;;;;5128301;27;20095;-66
2022/03/23 09:55:49;;;;;;;27.75;11.88;;;21.80;55.90;;;;;;5122081;27;20467;-66
2022/03/23 09:58:15;;;;;;;17.25;6.63;;;23.10;54.20;;;;;;5112499;27;20118;-67
2022/03/23 10:00:42;;;;;;;19.02;5.18;;;22.20;53.50;;;;;;5104544;27;20394;-67
2022/03/23 10:03:11;;;;;;;20.52;6.30;;;22.60;53.60;;;;;;5109913;27;20025;-66
2022/03/23 10:06:10;;;;;;;21.52;10.07;;;23.80;52.00;;;;;;5116350;27;21667;-66
2022/03/23 10:08:55;;;;;;;14.43;5.30;;;24.00;52.40;;;;;;5117762;27;20043;-66
2022/03/23 10:11:58;;;;;;;17.92;5.43;;;23.20;50.90;;;;;;5112902;27;20103;-66
2022/03/23 10:14:52;;;;;;;28.10;13.38;;;23.80;50.60;;;;;;5117436;27;20036;-66
2022/03/23 10:17:37;;;;;;;15.45;4.25;;;22.90;52.40;;;;;;5124560;27;20034;-66
2022/03/23 10:20:04;;;;;;;13.75;4.93;;;22.70;52.10;;;;;;5109294;27;20595;-67
2022/03/23 10:22:30;;;;;;;12.40;4.00;;;23.60;50.40;;;;;;5113344;27;20102;-67
2022/03/23 10:25:06;;;;;;;14.07;4.82;;;24.10;49.50;;;;;;5109870;27;20043;-67
2022/03/23 10:27:32;;;;;;;15.20;5.22;;;24.60;49.10;;;;;;5113642;27;20023;-67
2022/03/23 10:29:57;;;;;;;13.88;4.97;;;23.30;48.80;;;;;;5110093;27;20054;-67
2022/03/23 10:32:23;;;;;;;11.52;4.53;;;24.60;48.70;;;;;;5114105;27;20035;-67
2022/03/23 10:34:51;;;;;;;12.35;4.82;;;25.20;47.10;;;;;;5113140;27;20096;-67
2022/03/23 10:37:27;;;;;;;14.38;4.68;;;25.20;47.40;;;;;;5114149;27;20030;-67
2022/03/23 10:39:54;;;;;;;23.05;6.88;;;25.40;49.90;;;;;;5118038;27;20063;-67
2022/03/23 10:42:21;;;;;;;13.20;5.90;;;24.00;49.90;;;;;;5110920;27;20217;-67
2022/03/23 10:44:48;;;;;;;15.85;5.20;;;22.90;47.90;;;;;;5114078;27;20125;-67
2022/03/23 10:47:31;;;;;;;16.23;5.47;;;23.80;48.00;;;;;;5120480;27;20076;-66
2022/03/23 10:50:05;;;;;;;12.20;5.18;;;21.60;51.00;;;;;;5118880;27;20751;-67
2022/03/23 10:52:32;;;;;;;15.82;5.57;;;22.50;48.50;;;;;;5113667;27;20796;-66
2022/03/23 10:55:04;;;;;;;15.27;5.63;;;23.40;47.30;;;;;;5118937;27;20034;-66
2022/03/23 10:57:51;;;;;;;13.52;5.80;;;21.30;51.00;;;;;;5115150;27;20490;-66
2022/03/23 11:00:36;;;;;;;15.40;5.85;;;22.80;50.00;;;;;;5114149;27;20024;-67
2022/03/23 11:03:04;;;;;;;15.75;5.63;;;23.90;48.30;;;;;;5112643;27;20083;-67
2022/03/23 11:05:34;;;;;;;14.35;5.60;;;22.70;48.80;;;;;;5114734;27;20027;-67
2022/03/23 11:08:12;;;;;;;14.50;5.53;;;22.80;51.00;;;;;;5119916;27;20088;-66
2022/03/23 11:16:16;;;;;;;18.50;5.53;;;22.70;51.60;;;;;;5121006;27;19946;-66
2022/03/23 11:18:42;;;;;;;13.77;4.65;;;22.90;50.40;;;;;;5111466;27;20024;-66
2022/03/23 11:21:08;;;;;;;14.75;5.07;;;23.30;50.40;;;;;;5107677;27;20559;-66
2022/03/23 11:23:36;;;;;;;15.25;5.40;;;23.10;49.60;;;;;;5117434;27;20032;-66
2022/03/23 11:26:07;;;;;;;16.70;6.18;;;24.80;49.60;;;;;;5114289;27;20016;-66
2022/03/23 11:28:41;;;;;;;13.68;5.47;;;24.40;49.70;;;;;;5122646;27;20508;-68
2022/03/23 11:31:10;;;;;;;17.05;6.03;;;24.00;48.00;;;;;;5112270;27;20032;-67
2022/03/23 11:33:37;;;;;;;15.10;6.00;;;23.90;49.20;;;;;;5117844;27;20084;-66
2022/03/23 11:36:12;;;;;;;15.38;5.45;;;23.70;48.60;;;;;;5119050;27;20049;-67
2022/03/23 11:38:39;;;;;;;12.15;4.75;;;24.10;50.00;;;;;;5124742;27;20080;-66
2022/03/23 11:41:06;;;;;;;12.40;4.95;;;22.70;48.40;;;;;;5117189;27;20534;-66
2022/03/23 11:43:36;;;;;;;17.45;6.07;;;22.20;48.50;;;;;;5115044;27;20083;-66
2022/03/23 11:46:04;;;;;;;19.17;6.63;;;22.50;50.20;;;;;;5127618;27;20027;-66
2022/03/23 11:48:49;;;;;;;18.15;7.32;;;22.20;49.80;;;;;;5113108;27;20030;-66
2022/03/23 11:51:40;;;;;;;14.90;5.43;;;21.70;51.10;;;;;;5116505;27;20027;-66
2022/03/23 11:57:54;;;;;;;15.45;4.85;;;21.80;49.60;;;;;;5111903;27;20034;-66
2022/03/23 12:00:27;;;;;;;14.43;4.53;;;24.00;47.10;;;;;;5087067;27;20063;-67
2022/03/23 12:02:53;;;;;;;14.20;5.28;;;25.30;48.10;;;;;;5118194;27;20027;-67
2022/03/23 12:05:30;;;;;;;16.05;5.50;;;24.60;46.30;;;;;;5111610;27;20015;-66
2022/03/23 12:07:56;;;;;;;15.88;6.20;;;25.00;45.10;;;;;;5121691;27;20026;-67
2022/03/23 12:10:32;;;;;;;15.38;6.50;;;23.50;47.00;;;;;;5137165;27;20042;-67
2022/03/23 12:13:16;;;;;;;15.15;6.28;;;24.70;46.40;;;;;;5128087;27;20514;-66
2022/03/23 12:15:58;;;;;;;17.00;6.38;;;24.00;46.40;;;;;;5137034;27;20035;-66
2022/03/23 12:19:03;;;;;;;19.50;7.03;;;23.80;48.60;;;;;;5129703;27;20027;-67
2022/03/23 12:21:40;;;;;;;18.80;5.95;;;25.20;47.30;;;;;;5130226;27;20033;-66
2022/03/23 12:24:17;;;;;;;14.85;5.45;;;26.50;45.20;;;;;;5137149;27;20034;-67
2022/03/23 12:26:52;;;;;;;15.85;5.40;;;26.90;44.30;;;;;;5136254;27;20038;-66
2022/03/23 12:29:26;;;;;;;13.93;5.72;;;26.90;44.30;;;;;;5137281;27;20402;-66
2022/03/23 12:32:06;;;;;;;16.85;5.90;;;26.60;43.60;;;;;;5132505;27;20461;-66
2022/03/23 12:34:36;;;;;;;15.43;5.15;;;27.60;42.60;;;;;;5134071;27;20095;-67
2022/03/23 12:37:08;;;;;;;16.42;6.00;;;28.20;42.50;;;;;;5138582;27;20022;-67
2022/03/23 12:39:37;;;;;;;16.58;5.88;;;28.10;42.40;;;;;;5137190;27;20094;-67
2022/03/23 12:42:16;;;;;;;16.25;6.10;;;26.80;42.70;;;;;;5129458;27;20041;-66
2022/03/23 12:45:04;;;;;;;15.20;5.97;;;26.40;42.40;;;;;;5136810;27;20501;-66
2022/03/23 12:47:32;;;;;;;14.15;5.47;;;25.10;43.20;;;;;;5131468;27;20042;-66
2022/03/23 12:58:36;;;;;;;16.00;6.13;;;27.20;42.80;;;;;;5129175;27;20151;-66
2022/03/23 13:01:13;;;;;;;16.08;6.00;;;27.90;41.20;;;;;;5118793;27;20054;-66
2022/03/23 13:03:39;;;;;;;15.10;6.50;;;28.10;44.30;;;;;;5137654;27;20031;-66
2022/03/23 13:06:07;;;;;;;15.75;6.20;;;29.00;42.90;;;;;;5145944;27;20488;-66
2022/03/23 13:08:47;;;;;;;14.88;5.72;;;25.50;44.30;;;;;;5129098;27;20035;-66
2022/03/23 13:11:26;;;;;;;15.23;6.53;;;25.00;44.00;;;;;;5135117;27;20088;-66
2022/03/23 13:13:54;;;;;;;16.60;6.68;;;26.70;43.60;;;;;;5117746;27;20502;-66
2022/03/23 13:16:22;;;;;;;12.50;5.32;;;27.20;43.90;;;;;;5138558;27;20022;-66
2022/03/23 13:18:48;;;;;;;14.95;5.65;;;27.40;42.50;;;;;;5137006;27;20016;-67
2022/03/23 13:21:18;;;;;;;14.35;5.70;;;27.30;43.60;;;;;;5149556;27;20125;-66
2022/03/23 13:23:53;;;;;;;16.50;5.78;;;28.00;42.50;;;;;;5143079;27;20041;-67